Latest Weather Observations for Julia Creek

IDQ60801

Issued at 3:02 pm EST Saturday 30 July 2016 (issued every 30 minutes, with the page automatically refreshed every 10 minutes)

About weather observations | Map of weather stations | Latest weather observations for QLD | Other Formats
Station Details ID: 029058 Name: JULIA CREEK AIRPORT Lat: -20.67 Lon: 141.72 Height: 122.5 m
Data from the previous 72 hours. | See also: Recent months at Julia Creek
Date/Time
EST
Temp
°C
App
Temp
°C
Dew
Point
°C
Rel
Hum
%
Delta-T
°C
Wind Press
QNH
hPa
Press
MSL
hPa
Rain since
9am
mm
Dir  Spd
km/h
Gust
km/h
Spd
kts
Gust
kts
30/03:00pm 26.4 22.2 1.7 20 11.9 SE 13 19 7 10 - 1015.4 0.0
30/02:30pm 26.0 21.6 0.6 19 12.0 SSE 13 24 7 13 1016.0 1015.7 0.0
30/02:00pm 25.9 21.5 2.6 22 11.4 SE 15 24 8 13 1016.6 1016.3 0.0
30/01:30pm 25.3 21.0 3.3 24 10.8 SE 15 24 8 13 1017.0 1016.7 0.0
30/01:00pm 25.2 20.6 3.8 25 10.6 SE 17 26 9 14 1017.6 1017.4 0.0
30/12:30pm 24.4 19.8 3.7 26 10.2 SE 17 24 9 13 1018.2 1018.0 0.0
30/12:00pm 23.4 18.6 4.4 29 9.4 ESE 19 28 10 15 1018.8 1018.6 0.0
30/11:30am 23.2 18.4 4.7 30 9.2 ESE 19 24 10 13 1019.4 1019.2 0.0
30/11:00am 21.8 16.5 4.8 33 8.4 ESE 22 32 12 17 1019.9 1019.7 0.0
30/10:30am 20.9 15.7 5.7 37 7.6 SE 22 30 12 16 1020.1 1019.9 0.0
30/10:00am 19.4 14.3 6.2 42 6.6 ESE 22 30 12 16 1020.3 1020.1 0.0
30/09:30am 17.4 12.4 6.3 48 5.5 ESE 22 26 12 14 1020.6 1020.4 0.0
30/09:00am 15.2 10.4 5.7 53 4.6 SE 20 28 11 15 1020.4 1020.2 0.0
30/08:30am 13.7 9.0 6.1 60 3.6 SE 20 26 11 14 1020.2 1020.0 0.0
30/08:00am 10.5 7.1 6.1 74 2.1 SE 13 17 7 9 1019.8 1019.6 0.0
30/07:30am 8.0 5.3 5.5 84 1.1 SE 9 13 5 7 1019.3 1019.1 0.0
30/07:00am 7.5 4.3 5.1 85 1.1 SE 11 13 6 7 1019.2 1019.0 0.0
30/06:30am 8.0 4.8 5.1 82 1.3 SE 11 13 6 7 1019.0 1018.8 0.0
30/06:00am 8.7 5.2 5.4 80 1.5 SSE 13 15 7 8 1018.7 1018.5 0.0
30/05:30am 8.8 5.4 5.7 81 1.4 SSE 13 17 7 9 1018.5 1018.3 0.0
30/05:00am 8.6 5.5 5.7 82 1.3 SE 11 13 6 7 1018.5 1018.3 0.0
30/04:30am 9.1 6.4 5.8 80 1.5 SE 9 13 5 7 1018.4 1018.2 0.0
30/04:00am 9.5 6.5 6.0 79 1.6 SE 11 13 6 7 1018.4 1018.2 0.0
30/03:30am 10.0 6.6 6.0 76 1.9 SE 13 15 7 8 1018.4 1018.2 0.0
30/03:00am 10.3 6.9 6.1 75 2.0 SE 13 17 7 9 1018.3 1018.1 0.0
30/02:30am 11.1 7.4 6.3 72 2.3 SE 15 19 8 10 1018.5 1018.3 0.0
30/02:00am 11.9 7.8 6.2 68 2.7 SE 17 20 9 11 1018.7 1018.5 0.0
30/01:30am 12.7 8.7 6.5 66 3.0 SE 17 20 9 11 1019.0 1018.8 0.0
30/01:00am 12.7 9.4 6.3 65 3.0 SE 13 17 7 9 1019.3 1019.1 0.0
30/12:30am 13.6 9.6 6.5 62 3.4 SE 17 20 9 11 1019.4 1019.2 0.0
30/12:00am 13.4 9.7 6.5 63 3.3 SE 15 17 8 9 1019.5 1019.3 0.0
 
Date/Time
EST
Temp
°C
App
Temp
°C
Dew
Point
°C
Rel
Hum
%
Delta-T
°C
Wind Press
QNH
hPa
Press
MSL
hPa
Rain since
9am
mm
Dir  Spd
km/h
Gust
km/h
Spd
kts
Gust
kts
29/11:30pm 13.5 9.9 6.6 63 3.3 SE 15 17 8 9 1019.6 1019.4 0.0
29/11:00pm 14.2 10.1 6.3 59 3.8 SE 17 20 9 11 1019.5 1019.3 0.0
29/10:30pm 14.1 10.4 6.2 59 3.8 SE 15 19 8 10 1019.4 1019.2 0.0
29/10:00pm 13.9 10.0 5.5 57 4.0 SSE 15 19 8 10 1019.3 1019.1 0.0
29/09:30pm 15.1 10.9 5.6 53 4.6 SSE 17 20 9 11 1019.5 1019.3 0.0
29/09:00pm 16.3 12.1 5.9 50 5.0 SSE 17 20 9 11 1019.1 1018.9 0.0
29/08:30pm 17.0 12.7 5.3 46 5.7 SE 17 20 9 11 1018.8 1018.6 0.0
29/08:00pm 17.9 13.2 5.2 43 6.1 SE 19 22 10 12 1018.4 1018.2 0.0
29/07:30pm 17.2 13.2 4.9 44 5.9 SE 15 17 8 9 1018.1 1017.9 0.0
29/07:00pm 18.5 14.3 3.9 38 6.9 SSE 15 17 8 9 1017.6 1017.4 0.0
29/06:30pm 20.8 16.3 4.0 33 8.1 SE 17 19 9 10 1017.3 1017.1 0.0
29/06:00pm 23.0 18.5 4.0 29 9.3 SE 17 20 9 11 1017.3 1017.1 0.0
29/05:30pm 24.6 18.5 2.7 24 10.6 SE 24 32 13 17 1017.1 1016.9 0.0
29/05:00pm 25.4 19.2 2.2 22 11.2 SE 24 32 13 17 1017.2 1017.0 0.0
29/04:30pm 25.9 19.8 2.6 22 11.4 SE 24 32 13 17 1016.9 1016.6 0.0
29/04:00pm 26.2 19.9 3.5 23 11.3 SE 26 33 14 18 1017.0 1016.7 0.0
29/03:30pm 26.4 20.2 2.3 21 11.8 SE 24 35 13 19 1017.1 1016.9 0.0
29/03:00pm 25.9 20.5 2.6 22 11.4 SE 20 30 11 16 1017.3 1017.1 0.0
29/02:30pm 26.2 20.3 4.1 24 11.1 SE 24 33 13 18 1017.6 1017.4 0.0
29/02:00pm 25.8 19.8 3.1 23 11.2 SE 24 33 13 18 1017.9 1017.7 0.0
29/01:30pm 24.9 18.7 4.1 26 10.4 SE 26 35 14 19 1018.5 1018.3 0.0
29/01:00pm 24.4 18.6 4.2 27 10.0 SE 24 37 13 20 1019.1 1018.9 0.0
29/12:30pm 23.7 17.5 4.1 28 9.7 SE 26 37 14 20 1019.6 1019.4 0.0
29/12:00pm 23.1 17.2 4.1 29 9.3 SE 24 37 13 20 1020.1 1019.9 0.0
29/11:30am 22.6 16.8 4.2 30 9.1 ESE 24 32 13 17 1020.7 1020.5 0.0
29/11:00am 21.7 16.3 4.7 33 8.4 ESE 22 32 12 17 1021.1 1020.9 0.0
29/10:30am 19.9 15.0 5.2 38 7.2 ESE 20 28 11 15 1021.7 1021.5 0.0
29/10:00am 18.7 14.1 5.5 42 6.5 ESE 19 26 10 14 1021.8 1021.6 0.0
29/09:30am 16.8 12.7 6.3 50 5.2 SE 17 22 9 12 1021.9 1021.7 0.0
29/09:00am 14.7 10.2 6.0 56 4.2 SE 19 22 10 12 1021.8 1021.6 0.0
29/08:30am 13.2 8.7 6.1 62 3.4 SE 19 26 10 14 1021.8 1021.6 0.0
29/08:00am 10.4 6.6 5.6 72 2.2 SE 15 20 8 11 1021.5 1021.3 0.0
29/07:30am 7.4 4.1 4.5 82 1.3 SSE 11 15 6 8 1021.4 1021.2 0.0
29/07:00am 6.3 2.6 4.3 87 0.9 SSE 13 15 7 8 1021.0 1020.8 0.0
29/06:30am 6.7 3.4 4.5 86 1.0 SSE 11 13 6 7 1021.0 1020.8 0.0
29/06:00am 7.0 4.1 4.5 84 1.1 SE 9 11 5 6 1020.7 1020.5 0.0
29/05:30am 7.1 3.8 4.6 84 1.1 SE 11 13 6 7 1020.3 1020.1 0.0
29/05:00am 6.8 3.8 4.3 84 1.1 SE 9 11 5 6 1020.2 1020.0 0.0
29/04:30am 7.1 4.1 3.9 80 1.4 S 9 9 5 5 1020.4 1020.2 0.0
29/04:00am 8.8 5.5 4.8 76 1.8 SSE 11 13 6 7 1020.2 1020.0 0.0
29/03:30am 8.4 5.1 4.6 77 1.7 SSE 11 13 6 7 1020.1 1019.9 0.0
29/03:00am 9.0 5.7 4.6 74 2.0 SE 11 13 6 7 1020.0 1019.8 0.0
29/02:30am 9.4 5.8 4.8 73 2.1 SSE 13 15 7 8 1020.4 1020.2 0.0
29/02:00am 9.8 6.5 4.6 70 2.3 SSE 11 13 6 7 1021.0 1020.8 0.0
29/01:30am 10.8 7.2 4.9 67 2.7 SSE 13 15 7 8 1021.3 1021.1 0.0
29/01:00am 11.3 8.1 5.0 65 2.9 SSE 11 15 6 8 1021.4 1021.2 0.0
29/12:30am 12.4 8.8 4.9 60 3.5 S 13 17 7 9 1021.3 1021.1 0.0
29/12:00am 14.7 10.0 5.2 53 4.5 SE 19 22 10 12 1021.0 1020.8 0.0
 
Date/Time
EST
Temp
°C
App
Temp
°C
Dew
Point
°C
Rel
Hum
%
Delta-T
°C
Wind Press
QNH
hPa
Press
MSL
hPa
Rain since
9am
mm
Dir  Spd
km/h
Gust
km/h
Spd
kts
Gust
kts
28/11:30pm 15.1 10.3 5.6 53 4.6 SE 20 26 11 14 1021.2 1021.0 0.0
28/11:00pm 14.8 9.9 5.3 53 4.5 SE 20 26 11 14 1021.6 1021.4 0.0
28/10:30pm 15.2 9.9 5.1 51 4.8 SE 22 28 12 15 1021.7 1021.5 0.0
28/10:00pm 13.8 9.9 5.2 56 4.0 SSE 15 20 8 11 1021.6 1021.4 0.0
28/09:30pm 13.3 9.3 4.7 56 4.0 SSE 15 19 8 10 1021.4 1021.2 0.0
28/09:00pm 12.9 9.5 4.1 55 4.0 SSE 11 13 6 7 1021.5 1021.3 0.0
28/08:30pm 14.1 10.3 4.1 51 4.6 SSE 13 15 7 8 1021.2 1021.0 0.0
28/08:00pm 15.5 11.8 4.3 47 5.2 SSE 13 15 7 8 1020.9 1020.7 0.0
28/07:30pm 17.6 13.0 3.9 40 6.5 SE 17 20 9 11 1020.4 1020.2 0.0
28/07:00pm 18.9 13.9 3.5 36 7.3 SE 19 22 10 12 1020.2 1020.0 0.0
28/06:30pm 20.0 14.9 2.8 32 8.1 SE 19 22 10 12 1020.1 1019.9 0.0
28/06:00pm 22.0 16.2 2.2 27 9.3 SE 22 28 12 15 1019.8 1019.6 0.0
28/05:30pm 23.3 16.7 2.2 25 10.0 SE 26 33 14 18 1019.6 1019.4 0.0
28/05:00pm 24.1 17.1 1.7 23 10.6 SE 28 39 15 21 1019.5 1019.3 0.0
28/04:30pm 24.6 17.5 1.5 22 11.0 SE 28 33 15 18 1019.3 1019.1 0.0
28/04:00pm 25.0 18.4 1.8 22 11.1 SSE 26 35 14 19 1019.2 1019.0 0.0
28/03:30pm 24.9 18.8 3.0 24 10.7 SSE 24 35 13 19 1019.3 1019.1 0.0
28/03:00pm 25.0 18.9 3.0 24 10.7 SE 24 37 13 20 1019.5 1019.3 0.0
28/02:30pm 24.8 18.3 2.9 24 10.7 SE 26 35 14 19 1019.8 1019.6 0.0
28/02:00pm 24.2 17.7 2.4 24 10.5 SE 26 35 14 19 1019.9 1019.7 0.0
28/01:30pm 24.4 18.6 4.2 27 10.1 ESE 24 35 13 19 1020.1 1019.9 0.0
28/01:00pm 23.2 17.0 4.2 29 9.4 ESE 26 39 14 21 1020.7 1020.5 0.0
28/12:30pm 22.7 15.6 3.8 29 9.2 SE 30 39 16 21 1021.3 1021.1 0.0
28/12:00pm 21.9 15.1 4.9 33 8.4 SE 30 39 16 21 1022.1 1021.9 0.0
28/11:30am 20.7 13.3 3.9 33 8.1 ESE 32 46 17 25 1022.8 1022.5 0.0
28/11:00am 20.8 13.6 4.8 35 7.8 SE 32 41 17 22 1023.5 1023.2 0.0
28/10:30am 19.5 11.5 3.6 35 7.6 ESE 35 46 19 25 1024.0 1023.7 0.0
28/10:00am 18.7 11.3 4.8 40 6.7 SE 33 43 18 23 1024.4 1024.2 0.0
28/09:30am 16.3 10.4 5.6 49 5.2 SE 26 35 14 19 1024.4 1024.2 0.0
28/09:00am 14.6 9.8 5.7 55 4.2 SE 20 30 11 16 1024.4 1024.2 0.0
28/08:30am 12.2 8.4 5.8 65 3.0 SE 15 19 8 10 1024.2 1024.0 0.0
28/08:00am 9.0 6.4 5.9 81 1.4 ESE 9 13 5 7 1023.7 1023.4 0.0
28/07:30am 6.1 3.5 4.3 88 0.8 SE 7 7 4 4 1023.5 1023.2 0.0
28/07:00am 5.9 2.9 4.2 89 0.7 SE 9 9 5 5 1023.4 1023.1 0.0
28/06:30am 6.4 3.1 4.4 87 0.9 SSE 11 11 6 6 1023.0 1022.7 0.0
28/06:00am 5.7 2.2 3.5 86 0.9 S 11 13 6 7 1022.7 1022.4 0.0
28/05:30am 7.4 3.7 4.5 82 1.3 SSE 13 17 7 9 1022.7 1022.4 0.0
28/05:00am 6.0 2.2 4.0 87 0.9 SSE 13 15 7 8 1022.6 1022.3 0.0
28/04:30am 5.9 2.8 3.7 86 0.9 SE 9 9 5 5 1022.3 1022.1 0.0
28/04:00am 6.1 3.4 3.8 85 1.0 SE 7 7 4 4 1022.5 1022.2 0.0
28/03:30am 6.8 3.4 3.9 82 1.2 SSE 11 11 6 6 1022.5 1022.2 0.0
28/03:00am 7.6 4.2 4.0 78 1.6 SE 11 11 6 6 1022.7 1022.4 0.0
28/02:30am 8.3 5.0 4.3 76 1.8 SE 11 13 6 7 1022.7 1022.4 0.0
28/02:00am 9.4 6.0 4.2 70 2.3 SSE 11 13 6 7 1023.0 1022.7 0.0
28/01:30am 10.4 6.3 4.3 66 2.7 SSE 15 17 8 9 1023.1 1022.8 0.0
28/01:00am 10.9 6.8 4.6 65 2.8 SSE 15 19 8 10 1023.2 1022.9 0.0
28/12:30am 9.3 5.9 4.1 70 2.3 SSE 11 13 6 7 1023.2 1022.9 0.0
28/12:00am 10.2 6.9 4.6 68 2.5 SSE 11 13 6 7 1023.1 1022.8 0.0
 
Date/Time
EST
Temp
°C
App
Temp
°C
Dew
Point
°C
Rel
Hum
%
Delta-T
°C
Wind Press
QNH
hPa
Press
MSL
hPa
Rain since
9am
mm
Dir  Spd
km/h
Gust
km/h
Spd
kts
Gust
kts
27/11:30pm 11.1 7.8 4.6 64 3.0 SSE 11 15 6 8 1023.1 1022.8 0.0
27/11:00pm 12.3 8.6 4.5 59 3.6 S 13 15 7 8 1023.0 1022.7 0.0
27/10:30pm 14.2 9.8 4.8 53 4.4 SE 17 20 9 11 1022.7 1022.4 0.0
27/10:00pm 14.7 10.7 5.0 52 4.6 SE 15 19 8 10 1022.6 1022.3 0.0
27/09:30pm 15.1 10.3 4.5 49 5.0 SE 19 22 10 12 1022.5 1022.2 0.0
27/09:00pm 14.2 10.1 4.2 51 4.6 SE 15 19 8 10 1022.3 1022.1 0.0
27/08:30pm 14.1 10.3 3.8 50 4.7 SE 13 15 7 8 1022.0 1021.8 0.0
27/08:00pm 15.4 11.1 3.5 45 5.4 SSE 15 17 8 9 1021.6 1021.4 0.0
27/07:30pm 16.9 12.3 3.9 42 6.1 SSE 17 24 9 13 1021.2 1021.0 0.0
27/07:00pm 16.8 12.9 3.5 41 6.2 SE 13 15 7 8 1020.7 1020.5 0.0
27/06:30pm 19.1 14.7 2.9 34 7.6 SE 15 20 8 11 1020.4 1020.2 0.0
27/06:00pm 21.5 15.7 2.2 28 9.0 SE 22 30 12 16 1020.1 1019.9 0.0
27/05:30pm 22.9 16.0 2.4 26 9.8 SE 28 33 15 18 1019.8 1019.6 0.0
27/05:00pm 23.6 16.6 1.9 24 10.3 SE 28 35 15 19 1019.6 1019.4 0.0
27/04:30pm 24.0 16.7 2.2 24 10.4 SE 30 37 16 20 1019.4 1019.2 0.0
27/04:00pm 24.3 17.0 2.5 24 10.5 SE 30 39 16 21 1019.3 1019.1 0.0
27/03:30pm 24.3 16.6 2.5 24 10.5 SE 32 41 17 22 1019.4 1019.2 0.0

Other Formats:

Comma delimited format used in spreadsheet applications
http://www.bom.gov.au/fwo/IDQ60801/IDQ60801.94337.axf

JavaScript Object Notation format (JSON) in row-major order
http://www.bom.gov.au/fwo/IDQ60801/IDQ60801.94337.json